createdAt,value
2019-02-25T00:14:19.745Z,-6.86
2019-02-25T00:16:49.046Z,-7.01
2019-02-25T00:19:18.024Z,-6.91
2019-02-25T00:21:47.115Z,-6.96
2019-02-25T00:24:16.270Z,-7.03
2019-02-25T00:26:45.416Z,-7.11
2019-02-25T00:29:14.501Z,-7.23
2019-02-25T00:31:43.648Z,-7.23
2019-02-25T00:34:12.801Z,-7.24
2019-02-25T00:36:41.615Z,-7.31
2019-02-25T00:39:11.111Z,-7.35
2019-02-25T00:41:40.208Z,-7.35
2019-02-25T00:44:09.179Z,-7.34
2019-02-25T00:46:38.488Z,-7.37
2019-02-25T00:49:07.609Z,-7.39
2019-02-25T00:51:36.689Z,-7.46
2019-02-25T00:54:05.831Z,-7.53
2019-02-25T00:56:34.926Z,-7.42
2019-02-25T00:59:04.036Z,-7.51
2019-02-25T01:01:33.534Z,-7.51
2019-02-25T01:04:02.573Z,-7.47
2019-02-25T01:06:32.118Z,-7.45
2019-02-25T01:09:01.379Z,-7.45
2019-02-25T01:11:30.479Z,-7.44
2019-02-25T01:13:59.555Z,-7.48
2019-02-25T01:16:28.692Z,-7.54
2019-02-25T01:18:57.756Z,-7.61
2019-02-25T01:21:26.760Z,-7.64
2019-02-25T01:23:56.141Z,-7.61
2019-02-25T01:26:25.246Z,-7.64
2019-02-25T01:28:54.654Z,-7.65
2019-02-25T01:31:23.973Z,-7.64
2019-02-25T01:33:53.675Z,-7.65
2019-02-25T01:36:22.674Z,-7.77
2019-02-25T01:38:52.451Z,-7.84
2019-02-25T01:41:21.584Z,-7.84
2019-02-25T01:43:50.712Z,-7.87
2019-02-25T01:46:19.651Z,-7.94
2019-02-25T01:48:48.748Z,-7.82
2019-02-25T01:51:17.812Z,-7.92
2019-02-25T01:53:46.854Z,-7.91
2019-02-25T01:56:15.965Z,-7.93
2019-02-25T01:58:45.372Z,-7.93
2019-02-25T02:01:14.677Z,-8.01
2019-02-25T02:03:43.852Z,-8.04
2019-02-25T02:06:12.945Z,-7.92
2019-02-25T02:08:42.139Z,-8.00
2019-02-25T02:11:11.121Z,-8.05
2019-02-25T02:13:40.327Z,-8.04
2019-02-25T02:16:09.461Z,-8.03
2019-02-25T02:18:38.535Z,-7.99
2019-02-25T02:21:07.624Z,-8.13
2019-02-25T02:23:36.947Z,-8.00
2019-02-25T02:26:06.066Z,-8.31
2019-02-25T02:28:35.207Z,-8.46
2019-02-25T02:31:05.103Z,-8.52
2019-02-25T02:33:34.216Z,-8.55
2019-02-25T02:36:03.331Z,-8.55
2019-02-25T02:38:32.500Z,-8.74
2019-02-25T02:41:01.603Z,-8.64
2019-02-25T02:43:30.698Z,-8.62
2019-02-25T02:46:07.761Z,-8.69
2019-02-25T02:48:44.492Z,-8.77
2019-02-25T02:51:14.166Z,-8.76
2019-02-25T02:53:43.276Z,-8.71
2019-02-25T02:56:12.446Z,-8.82
2019-02-25T02:58:41.620Z,-8.83
2019-02-25T03:01:10.699Z,-8.91
2019-02-25T03:03:39.763Z,-8.85
2019-02-25T03:06:09.054Z,-8.83
2019-02-25T03:08:38.049Z,-8.87
2019-02-25T03:11:07.364Z,-8.99
2019-02-25T03:13:36.553Z,-8.96
2019-02-25T03:16:05.673Z,-9.11
2019-02-25T03:18:34.714Z,-9.13
2019-02-25T03:21:03.837Z,-9.12
2019-02-25T03:23:33.031Z,-8.99
2019-02-25T03:26:02.226Z,-8.93
2019-02-25T03:28:31.363Z,-8.95
2019-02-25T03:31:00.445Z,-9.03
2019-02-25T03:33:29.518Z,-9.12
2019-02-25T03:35:58.648Z,-9.01
2019-02-25T03:38:27.595Z,-8.97
2019-02-25T03:40:57.312Z,-9.05
2019-02-25T03:43:26.477Z,-9.17
2019-02-25T03:45:55.530Z,-9.13
2019-02-25T03:48:27.461Z,-9.09
2019-02-25T03:50:57.260Z,-9.12
2019-02-25T03:53:26.302Z,-9.08
2019-02-25T03:55:56.017Z,-8.98
2019-02-25T03:58:25.066Z,-9.00
2019-02-25T04:00:54.261Z,-8.91
2019-02-25T04:03:23.453Z,-9.09
2019-02-25T04:05:52.643Z,-8.98
2019-02-25T04:08:21.675Z,-9.06
2019-02-25T04:10:50.710Z,-9.12
2019-02-25T04:13:19.720Z,-9.16
2019-02-25T04:15:48.810Z,-9.05
2019-02-25T04:18:18.517Z,-9.18
2019-02-25T04:20:47.683Z,-9.14
2019-02-25T04:23:16.719Z,-9.05
2019-02-25T04:25:45.818Z,-9.04
2019-02-25T04:28:14.855Z,-9.03
2019-02-25T04:30:45.075Z,-8.89
2019-02-25T04:33:14.064Z,-8.82
2019-02-25T04:35:43.170Z,-8.98
2019-02-25T04:38:12.232Z,-8.96
2019-02-25T04:40:41.288Z,-8.94
2019-02-25T04:43:10.376Z,-8.89
2019-02-25T04:45:39.503Z,-8.86
2019-02-25T04:48:08.662Z,-8.85
2019-02-25T04:50:37.647Z,-8.77
2019-02-25T04:53:06.805Z,-8.80
2019-02-25T04:55:35.727Z,-8.85
2019-02-25T04:58:04.739Z,-8.87
2019-02-25T05:00:34.048Z,-8.82
2019-02-25T05:03:09.417Z,-8.86
2019-02-25T05:05:38.511Z,-9.00
2019-02-25T05:08:07.559Z,-9.18
2019-02-25T05:10:36.725Z,-9.06
2019-02-25T05:13:06.036Z,-9.00
2019-02-25T05:15:35.428Z,-8.93
2019-02-25T05:18:04.529Z,-8.82
2019-02-25T05:20:33.696Z,-9.01
2019-02-25T05:23:02.654Z,-8.91
2019-02-25T05:25:31.703Z,-8.97
2019-02-25T05:28:00.949Z,-9.06
2019-02-25T05:30:29.767Z,-9.01
2019-02-25T05:32:59.137Z,-8.95
2019-02-25T05:35:28.175Z,-8.86
2019-02-25T05:37:57.252Z,-8.87
2019-02-25T05:40:26.532Z,-8.75
2019-02-25T05:42:55.663Z,-8.76
2019-02-25T05:45:24.739Z,-8.70
2019-02-25T05:47:53.671Z,-8.63
2019-02-25T05:50:22.942Z,-8.56
2019-02-25T05:52:52.015Z,-8.52
2019-02-25T05:55:21.177Z,-8.54
2019-02-25T05:57:50.311Z,-8.34
2019-02-25T06:00:21.451Z,-8.28
2019-02-25T06:02:50.652Z,-8.20
2019-02-25T06:05:19.921Z,-8.22
2019-02-25T06:07:49.040Z,-8.27
2019-02-25T06:10:18.160Z,-8.25
2019-02-25T06:12:47.310Z,-8.21
2019-02-25T06:15:16.563Z,-8.10
2019-02-25T06:17:45.541Z,-7.99
2019-02-25T06:20:15.072Z,-7.85
2019-02-25T06:22:44.301Z,-7.91
2019-02-25T06:25:13.813Z,-7.89
2019-02-25T06:27:42.996Z,-7.75
2019-02-25T06:30:14.664Z,-7.68
2019-02-25T06:32:44.125Z,-7.61
2019-02-25T06:35:13.858Z,-7.75
2019-02-25T06:37:42.919Z,-7.84
2019-02-25T06:40:15.650Z,-7.60
2019-02-25T06:42:42.432Z,-7.69
2019-02-25T06:45:12.890Z,-7.41
2019-02-25T06:47:41.936Z,-7.47
2019-02-25T06:50:11.948Z,-7.24
2019-02-25T06:52:41.108Z,-7.26
2019-02-25T06:55:12.012Z,-7.27
2019-02-25T06:57:41.127Z,-7.23
2019-02-25T07:00:12.894Z,-7.15
2019-02-25T07:02:41.986Z,-7.28
2019-02-25T07:05:21.192Z,-7.04
2019-02-25T07:07:54.919Z,-7.15
2019-02-25T07:10:29.295Z,-7.13
2019-02-25T07:13:03.459Z,-6.96
2019-02-25T07:16:36.304Z,-6.82
2019-02-25T07:19:10.560Z,-7.13
2019-02-25T07:22:43.475Z,-6.59
2019-02-25T07:25:17.695Z,-6.41
2019-02-25T07:29:54.579Z,-6.29
2019-02-25T07:33:29.452Z,-6.26
2019-02-25T07:36:18.875Z,-6.10
2019-02-25T07:40:58.543Z,-5.78
2019-02-25T07:43:36.573Z,-5.86
2019-02-25T07:46:17.604Z,-5.84
2019-02-25T07:48:53.719Z,-5.45
2019-02-25T07:51:32.795Z,-5.07
2019-02-25T07:54:07.853Z,-4.97
2019-02-25T07:56:42.815Z,-4.83
2019-02-25T07:59:16.039Z,-4.63
2019-02-25T08:01:49.285Z,-4.58
2019-02-25T08:04:25.435Z,-4.49
2019-02-25T08:07:34.019Z,-4.36
2019-02-25T08:10:06.975Z,-4.33
2019-02-25T08:12:41.210Z,-4.28
2019-02-25T08:15:17.492Z,-4.18
2019-02-25T08:17:51.804Z,-4.15
2019-02-25T08:21:27.622Z,-4.30
2019-02-25T08:24:32.880Z,-3.91
2019-02-25T08:27:07.377Z,-3.53
2019-02-25T08:29:41.718Z,-3.24
2019-02-25T08:32:36.181Z,-2.91
2019-02-25T08:35:12.808Z,-2.68
2019-02-25T08:38:05.357Z,-2.95
2019-02-25T08:40:46.053Z,-2.53
2019-02-25T08:43:20.135Z,-1.92
2019-02-25T08:45:56.296Z,-1.67
2019-02-25T08:48:59.882Z,-1.73
2019-02-25T08:51:29.044Z,-1.35
2019-02-25T08:53:58.175Z,-1.19
2019-02-25T08:56:27.360Z,-1.23
2019-02-25T08:58:56.435Z,-1.53
2019-02-25T09:01:25.540Z,-1.68
2019-02-25T09:03:54.817Z,-1.46
2019-02-25T09:06:23.941Z,-1.21
2019-02-25T09:08:53.067Z,-1.00
2019-02-25T09:11:22.420Z,-1.11
2019-02-25T09:13:51.498Z,-1.43
2019-02-25T09:16:20.603Z,-0.64
2019-02-25T09:18:49.733Z,-0.87
2019-02-25T09:21:18.763Z,-0.76
2019-02-25T09:23:48.561Z,-0.74
2019-02-25T09:26:17.884Z,-0.63
2019-02-25T09:28:46.989Z,-0.57
2019-02-25T09:31:15.996Z,-0.61
2019-02-25T09:33:45.312Z,-0.08
2019-02-25T09:36:14.512Z,0.19
2019-02-25T09:38:44.178Z,0.02
2019-02-25T09:41:13.331Z,0.28
2019-02-25T09:43:42.402Z,0.72
2019-02-25T09:46:11.498Z,0.35
2019-02-25T09:48:40.710Z,-0.05
2019-02-25T09:51:11.258Z,0.03
2019-02-25T09:53:38.989Z,-0.36
2019-02-25T09:56:08.270Z,-0.54
2019-02-25T09:58:38.007Z,-0.29
2019-02-25T10:01:07.288Z,-0.12
2019-02-25T10:03:36.422Z,0.23
2019-02-25T10:06:06.038Z,0.05
2019-02-25T10:08:35.087Z,-0.55
2019-02-25T10:11:04.410Z,-0.54
2019-02-25T10:13:33.532Z,-0.03
2019-02-25T10:16:03.278Z,0.10
2019-02-25T10:18:32.719Z,0.79
2019-02-25T10:21:01.998Z,1.39
2019-02-25T10:23:31.141Z,1.33
2019-02-25T10:26:00.235Z,0.22
2019-02-25T10:28:29.897Z,0.35
2019-02-25T10:30:59.027Z,-0.28
2019-02-25T10:33:28.329Z,-0.43
2019-02-25T10:35:57.400Z,0.16
2019-02-25T10:38:26.498Z,0.47
2019-02-25T10:40:55.702Z,0.56
2019-02-25T10:43:26.094Z,0.69
2019-02-25T10:45:54.659Z,0.58
2019-02-25T10:48:25.749Z,0.82
2019-02-25T10:50:56.022Z,0.94
2019-02-25T10:53:22.181Z,1.00
2019-02-25T10:55:58.269Z,0.99
2019-02-25T10:58:29.011Z,1.37
2019-02-25T11:00:56.556Z,1.54
2019-02-25T11:03:25.815Z,1.66
2019-02-25T11:05:56.367Z,1.79
2019-02-25T11:08:24.524Z,1.29
2019-02-25T11:10:58.675Z,1.50
2019-02-25T11:13:29.696Z,1.85
2019-02-25T11:15:57.552Z,1.38
2019-02-25T11:18:28.328Z,1.40
2019-02-25T11:20:56.018Z,1.61
2019-02-25T11:23:25.088Z,1.51
2019-02-25T11:25:56.274Z,1.42
2019-02-25T11:28:26.124Z,1.83
2019-02-25T11:30:53.799Z,1.58
2019-02-25T11:33:23.223Z,1.66
2019-02-25T11:35:51.177Z,1.58
2019-02-25T11:38:20.279Z,1.99
2019-02-25T11:40:49.403Z,2.59
2019-02-25T11:43:19.471Z,3.01
2019-02-25T11:45:47.658Z,3.59
2019-02-25T11:48:16.940Z,3.83
2019-02-25T11:50:46.043Z,3.66
2019-02-25T11:53:15.407Z,4.03
2019-02-25T11:55:44.512Z,3.84
2019-02-25T11:58:13.567Z,4.52
2019-02-25T12:00:42.661Z,4.04
2019-02-25T12:03:11.764Z,4.34
2019-02-25T12:05:40.841Z,4.50
2019-02-25T12:08:09.917Z,4.75
2019-02-25T12:10:39.179Z,4.54
2019-02-25T12:13:08.415Z,4.68
2019-02-25T12:15:37.546Z,4.94
2019-02-25T12:18:06.762Z,4.90
2019-02-25T12:20:36.027Z,5.48
2019-02-25T12:23:05.557Z,5.83
2019-02-25T12:25:35.416Z,5.29
2019-02-25T12:28:04.527Z,5.82
2019-02-25T12:30:33.780Z,6.45
2019-02-25T12:33:02.866Z,6.51
2019-02-25T12:35:32.031Z,6.35
2019-02-25T12:38:00.929Z,5.61
2019-02-25T12:40:30.052Z,5.47
2019-02-25T12:42:59.220Z,4.99
2019-02-25T12:45:28.364Z,5.05
2019-02-25T12:47:57.443Z,5.30
2019-02-25T12:50:26.393Z,5.45
2019-02-25T12:52:55.498Z,5.59
2019-02-25T12:55:25.219Z,5.52
2019-02-25T12:57:54.343Z,5.73
2019-02-25T13:00:23.408Z,6.72
2019-02-25T13:02:52.561Z,5.86
2019-02-25T13:05:21.708Z,6.17
2019-02-25T13:07:50.829Z,7.29
2019-02-25T13:10:20.768Z,7.44
2019-02-25T13:12:51.536Z,7.04
2019-02-25T13:15:19.039Z,6.37
2019-02-25T13:17:48.155Z,7.54
2019-02-25T13:20:17.239Z,7.24
2019-02-25T13:22:46.202Z,7.93
2019-02-25T13:25:15.344Z,9.54
2019-02-25T13:27:44.383Z,9.95
2019-02-25T13:30:14.769Z,10.56
2019-02-25T13:32:44.001Z,11.18
2019-02-25T13:35:13.548Z,11.46
2019-02-25T13:37:42.706Z,11.12
2019-02-25T13:40:12.313Z,11.29
2019-02-25T13:42:41.437Z,11.72
2019-02-25T13:45:11.306Z,10.17
2019-02-25T13:47:40.482Z,10.38
2019-02-25T13:50:10.862Z,11.27
2019-02-25T13:52:47.869Z,11.54
2019-02-25T13:55:09.767Z,12.36
2019-02-25T13:57:38.916Z,12.51
2019-02-25T14:00:13.672Z,11.82
2019-02-25T14:02:42.881Z,10.30
2019-02-25T14:05:12.001Z,10.74
2019-02-25T14:07:41.081Z,10.16
2019-02-25T14:10:10.955Z,9.17
2019-02-25T14:12:40.212Z,8.32
2019-02-25T14:15:09.719Z,7.72
2019-02-25T14:17:38.872Z,6.64
2019-02-25T14:20:11.176Z,6.16
2019-02-25T14:22:40.332Z,5.69
2019-02-25T14:25:12.454Z,5.62
2019-02-25T14:27:40.351Z,5.38
2019-02-25T14:30:13.012Z,5.46
2019-02-25T14:32:42.225Z,5.82
2019-02-25T14:35:11.300Z,6.47
2019-02-25T14:37:40.395Z,6.55
2019-02-25T14:40:14.460Z,7.31
2019-02-25T14:42:42.593Z,7.57
2019-02-25T14:45:10.115Z,6.78
2019-02-25T14:47:40.071Z,6.90
2019-02-25T14:50:11.001Z,6.89
2019-02-25T14:52:40.123Z,6.84
2019-02-25T14:55:10.997Z,6.13
2019-02-25T14:57:40.728Z,5.55
2019-02-25T15:00:09.903Z,5.33
2019-02-25T15:02:39.499Z,4.79
2019-02-25T15:05:08.727Z,4.51
2019-02-25T15:07:38.008Z,4.25
2019-02-25T15:10:09.177Z,4.21
2019-02-25T15:12:38.354Z,4.09
2019-02-25T15:15:08.841Z,3.96
2019-02-25T15:17:37.411Z,3.87
2019-02-25T15:20:06.692Z,3.84
2019-02-25T15:22:36.291Z,3.73
2019-02-25T15:25:05.355Z,3.53
2019-02-25T15:27:34.588Z,3.44
2019-02-25T15:30:03.778Z,3.48
2019-02-25T15:32:33.558Z,3.21
2019-02-25T15:35:01.742Z,3.17
2019-02-25T15:37:30.974Z,3.05
2019-02-25T15:39:59.953Z,2.92
2019-02-25T15:42:30.097Z,2.90
2019-02-25T15:44:58.315Z,2.48
2019-02-25T15:47:28.104Z,2.33
2019-02-25T15:49:59.720Z,2.45
2019-02-25T15:52:27.746Z,2.47
2019-02-25T15:54:55.507Z,2.54
2019-02-25T15:57:26.296Z,2.53
2019-02-25T15:59:53.791Z,2.50
2019-02-25T16:02:22.885Z,2.43
2019-02-25T16:04:53.932Z,2.30
2019-02-25T16:07:23.866Z,2.28
2019-02-25T16:09:50.545Z,2.25
2019-02-25T16:12:23.212Z,2.29
2019-02-25T16:14:51.000Z,2.37
2019-02-25T16:17:19.084Z,2.28
2019-02-25T16:19:53.142Z,2.26
2019-02-25T16:22:18.400Z,2.24
2019-02-25T16:24:47.242Z,2.21
2019-02-25T16:27:18.669Z,2.17
2019-02-25T16:29:46.112Z,1.86
2019-02-25T16:32:16.895Z,1.58
2019-02-25T16:34:44.448Z,1.20
2019-02-25T16:37:13.512Z,1.57
2019-02-25T16:39:42.587Z,1.51
2019-02-25T16:42:11.882Z,1.38
2019-02-25T16:44:41.480Z,1.57
2019-02-25T16:47:11.819Z,1.67
2019-02-25T16:49:39.839Z,1.66
2019-02-25T16:52:09.008Z,1.72
2019-02-25T16:54:38.039Z,1.79
2019-02-25T16:57:07.345Z,1.70
2019-02-25T16:59:36.311Z,1.35
2019-02-25T17:02:07.136Z,1.13
2019-02-25T17:04:34.672Z,1.07
2019-02-25T17:07:03.876Z,1.23
2019-02-25T17:09:34.148Z,1.15
2019-02-25T17:12:02.883Z,1.00
2019-02-25T17:14:31.363Z,1.01
2019-02-25T17:17:00.363Z,0.87
2019-02-25T17:19:29.553Z,0.68
2019-02-25T17:21:58.587Z,0.65
2019-02-25T17:24:30.021Z,0.45
2019-02-25T17:26:57.387Z,0.41
2019-02-25T17:29:26.541Z,0.48
2019-02-25T17:31:57.525Z,0.66
2019-02-25T17:34:24.947Z,0.58
2019-02-25T17:36:54.597Z,0.53
2019-02-25T17:39:22.968Z,0.59
2019-02-25T17:41:52.540Z,0.58
2019-02-25T17:44:24.235Z,0.58
2019-02-25T17:46:50.667Z,0.59
2019-02-25T17:49:19.960Z,0.65
2019-02-25T17:51:49.613Z,0.75
2019-02-25T17:54:18.598Z,0.80
2019-02-25T17:56:49.232Z,0.73
2019-02-25T17:59:16.876Z,0.52
2019-02-25T18:01:46.816Z,0.46
2019-02-25T18:04:15.487Z,0.47
2019-02-25T18:06:44.551Z,0.34
2019-02-25T18:09:15.915Z,0.38
2019-02-25T18:11:43.781Z,0.32
2019-02-25T18:14:13.317Z,0.19
2019-02-25T18:16:43.640Z,0.25
2019-02-25T18:19:11.712Z,0.21
2019-02-25T18:21:43.046Z,0.17
2019-02-25T18:24:09.989Z,0.22
2019-02-25T18:26:38.669Z,0.11
2019-02-25T18:29:09.400Z,0.12
2019-02-25T18:31:37.173Z,0.16
2019-02-25T18:34:06.967Z,0.07
2019-02-25T18:36:35.563Z,-0.08
2019-02-25T18:39:06.263Z,-0.06
2019-02-25T18:41:35.600Z,0.00
2019-02-25T18:44:05.307Z,-0.06
2019-02-25T18:46:34.164Z,-0.17
2019-02-25T18:49:05.113Z,-0.26
2019-02-25T18:51:35.039Z,-0.18
2019-02-25T18:54:03.718Z,-0.19
2019-02-25T18:56:31.392Z,-0.39
2019-02-25T18:59:08.230Z,-0.26
2019-02-25T19:01:29.521Z,-0.22
2019-02-25T19:03:59.053Z,-0.31
2019-02-25T19:06:29.255Z,-0.41
2019-02-25T19:08:58.288Z,-0.49
2019-02-25T19:11:28.111Z,-0.39
2019-02-25T19:13:56.734Z,-0.44
2019-02-25T19:16:25.380Z,-0.54
2019-02-25T19:18:54.420Z,-0.62
2019-02-25T19:21:25.325Z,-0.61
2019-02-25T19:23:52.784Z,-0.46
2019-02-25T19:26:22.249Z,-0.43
2019-02-25T19:28:52.470Z,-0.61
2019-02-25T19:31:20.584Z,-0.57
2019-02-25T19:33:49.639Z,-0.42
2019-02-25T19:36:19.217Z,-0.49
2019-02-25T19:38:48.641Z,-0.56
2019-02-25T19:41:17.754Z,-0.67
2019-02-25T19:43:46.451Z,-0.74
2019-02-25T19:46:15.753Z,-0.82
2019-02-25T19:48:47.006Z,-0.75
2019-02-25T19:51:14.275Z,-0.91
2019-02-25T19:53:45.155Z,-0.82
2019-02-25T19:56:12.975Z,-0.83
2019-02-25T19:58:42.071Z,-0.76
2019-02-25T20:01:11.353Z,-0.67
2019-02-25T20:03:42.792Z,-0.63
2019-02-25T20:06:13.862Z,-0.74
2019-02-25T20:08:39.663Z,-0.89
2019-02-25T20:11:09.731Z,-0.83
2019-02-25T20:13:38.018Z,-0.87
2019-02-25T20:16:08.135Z,-0.84
2019-02-25T20:18:37.717Z,-0.90
2019-02-25T20:21:08.042Z,-0.96
2019-02-25T20:23:34.940Z,-0.84
2019-02-25T20:26:04.166Z,-0.77
2019-02-25T20:28:33.300Z,-0.89
2019-02-25T20:31:02.585Z,-1.00
2019-02-25T20:33:33.026Z,-0.98
2019-02-25T20:36:03.027Z,-1.27
2019-02-25T20:38:32.619Z,-1.08
2019-02-25T20:41:00.553Z,-1.02
2019-02-25T20:43:30.809Z,-0.98
2019-02-25T20:45:59.325Z,-0.93
2019-02-25T20:48:27.684Z,-0.92
2019-02-25T20:50:59.652Z,-0.97
2019-02-25T20:53:27.428Z,-0.86
2019-02-25T20:55:56.723Z,-0.96
2019-02-25T20:58:25.007Z,-0.91
2019-02-25T21:00:54.067Z,-1.05
2019-02-25T21:03:25.264Z,-1.19
2019-02-25T21:05:52.317Z,-1.18
2019-02-25T21:08:23.521Z,-1.24
2019-02-25T21:10:51.678Z,-1.33
2019-02-25T21:13:22.063Z,-1.40
2019-02-25T21:15:49.591Z,-1.40
2019-02-25T21:18:20.245Z,-1.43
2019-02-25T21:20:49.390Z,-1.42
2019-02-25T21:23:17.058Z,-1.47
2019-02-25T21:25:46.257Z,-1.46
2019-02-25T21:28:15.456Z,-1.51
2019-02-25T21:30:46.042Z,-1.45
2019-02-25T21:33:17.382Z,-1.54
2019-02-25T21:35:42.786Z,-1.57
2019-02-25T21:38:11.871Z,-1.55
2019-02-25T21:40:41.016Z,-1.67
2019-02-25T21:43:14.430Z,-1.63
2019-02-25T21:45:39.263Z,-1.61
2019-02-25T21:48:08.573Z,-1.60
2019-02-25T21:50:38.336Z,-1.57
2019-02-25T21:53:07.594Z,-1.58
2019-02-25T21:55:36.262Z,-1.63
2019-02-25T21:58:05.373Z,-1.78
2019-02-25T22:00:37.383Z,-1.70
2019-02-25T22:03:06.013Z,-1.70
2019-02-25T22:05:33.247Z,-1.71
2019-02-25T22:08:04.175Z,-1.79
2019-02-25T22:10:34.167Z,-1.84
2019-02-25T22:13:04.404Z,-1.86
2019-02-25T22:15:29.838Z,-1.80
2019-02-25T22:17:58.979Z,-1.71
2019-02-25T22:20:28.019Z,-1.73
2019-02-25T22:22:59.232Z,-1.78
2019-02-25T22:25:26.548Z,-1.95
2019-02-25T22:27:56.196Z,-1.98
2019-02-25T22:30:25.091Z,-2.08
2019-02-25T22:32:54.860Z,-2.13
2019-02-25T22:35:23.730Z,-2.09
2019-02-25T22:37:55.298Z,-2.13
2019-02-25T22:40:21.763Z,-2.11
2019-02-25T22:42:52.224Z,-2.08
2019-02-25T22:45:19.861Z,-2.11
2019-02-25T22:47:48.959Z,-2.16
2019-02-25T22:50:18.012Z,-2.13
2019-02-25T22:52:51.228Z,-2.14
2019-02-25T22:55:18.364Z,-2.16
2019-02-25T22:57:46.112Z,-2.34
2019-02-25T23:00:27.859Z,-2.23
2019-02-25T23:02:57.086Z,-2.34
2019-02-25T23:05:26.349Z,-2.34
2019-02-25T23:07:55.445Z,-2.32
2019-02-25T23:10:25.552Z,-2.33
2019-02-25T23:12:54.819Z,-2.36
2019-02-25T23:15:26.955Z,-2.37
2019-02-25T23:17:53.107Z,-2.30
2019-02-25T23:20:23.040Z,-2.35
2019-02-25T23:22:52.912Z,-2.26
2019-02-25T23:25:20.534Z,-2.35
2019-02-25T23:27:51.661Z,-2.28
2019-02-25T23:30:18.787Z,-2.25
2019-02-25T23:32:47.874Z,-2.38
2019-02-25T23:35:18.475Z,-2.31
2019-02-25T23:37:49.037Z,-2.32
2019-02-25T23:40:16.783Z,-2.29
2019-02-25T23:42:46.499Z,-2.29
2019-02-25T23:45:15.180Z,-2.31
2019-02-25T23:47:42.678Z,-2.40
2019-02-25T23:50:13.712Z,-2.32
2019-02-25T23:52:41.908Z,-2.32
2019-02-25T23:55:14.304Z,-2.38
2019-02-25T23:57:41.286Z,-2.32
